Time,TemperatureF,DewpointF,PressureIn,WindDirection,WindDirectionDegrees,WindSpeedMPH,WindSpeedGustMPH,Humidity,HourlyPrecipIn,Conditions,Clouds,dailyrainin,SoftwareType,DateUTC
2013-07-25 00:04:00,68.4,-36.2,30.00,NNW,337,0.0,4.0,1,0.00,,,0.00,Wunderground v.1.15,2013-07-25 05:04:00,
2013-07-25 00:09:00,68.3,-36.2,30.00,NW,316,0.0,4.0,1,0.00,,,0.00,Wunderground v.1.15,2013-07-25 05:09:00,
2013-07-25 00:14:00,68.0,-36.4,30.00,NW,316,0.0,4.0,1,0.00,,,0.00,Wunderground v.1.15,2013-07-25 05:14:00,
2013-07-25 00:19:00,67.4,-36.8,30.00,NNE,30,0.0,4.0,1,0.00,,,0.00,Wunderground v.1.15,2013-07-25 05:19:00,
2013-07-25 00:25:00,67.1,-37.0,30.00,NNE,30,0.0,4.0,1,0.00,,,0.00,Wunderground v.1.15,2013-07-25 05:25:00,
2013-07-25 00:30:00,66.7,-37.2,30.01,NNE,29,0.0,4.0,1,0.00,,,0.00,Wunderground v.1.15,2013-07-25 05:30:00,
2013-07-25 00:35:00,66.3,-37.5,30.01,NNE,28,0.0,4.0,1,0.00,,,0.00,Wunderground v.1.15,2013-07-25 05:35:00,
2013-07-25 00:39:00,66.4,-37.4,30.01,NNE,24,0.0,4.0,1,0.00,,,0.00,Wunderground v.1.15,2013-07-25 05:39:00,
2013-07-25 00:44:00,66.2,-37.5,30.01,NNE,24,0.0,4.0,1,0.00,,,0.00,Wunderground v.1.15,2013-07-25 05:44:00,
2013-07-25 00:49:00,66.2,-37.5,30.01,NW,317,0.0,4.0,1,0.00,,,0.00,Wunderground v.1.15,2013-07-25 05:49:00,
2013-07-25 00:59:00,66.4,-37.4,30.01,NNW,345,0.0,4.0,1,0.00,,,0.00,Wunderground v.1.15,2013-07-25 05:59:00,
2013-07-25 01:04:00,66.4,-37.4,30.01,NNW,345,0.0,4.0,1,0.00,,,0.00,Wunderground v.1.15,2013-07-25 06:04:00,
2013-07-25 01:09:00,66.2,-37.5,30.01,NNW,345,0.0,4.0,1,0.00,,,0.00,Wunderground v.1.15,2013-07-25 06:09:00,
2013-07-25 01:14:00,66.2,-37.5,30.01,NNW,342,0.0,4.0,1,0.00,,,0.00,Wunderground v.1.15,2013-07-25 06:14:00,
2013-07-25 01:19:00,66.0,-37.6,30.01,NNW,342,0.0,4.0,1,0.00,,,0.00,Wunderground v.1.15,2013-07-25 06:19:00,
2013-07-25 01:25:00,65.6,-37.9,30.01,NNW,342,0.0,4.0,1,0.00,,,0.00,Wunderground v.1.15,2013-07-25 06:25:00,
2013-07-25 01:35:00,64.5,-38.6,30.00,NNW,342,0.0,4.0,1,0.00,,,0.00,Wunderground v.1.15,2013-07-25 06:35:00,
2013-07-25 01:40:00,64.0,-38.9,30.01,NNW,342,0.0,4.0,1,0.00,,,0.00,Wunderground v.1.15,2013-07-25 06:40:00,
2013-07-25 01:45:00,63.6,-39.1,30.01,NNW,342,0.0,4.0,1,0.00,,,0.00,Wunderground v.1.15,2013-07-25 06:45:00,
2013-07-25 01:49:00,63.3,-39.3,30.00,NNW,342,0.0,4.0,1,0.00,,,0.00,Wunderground v.1.15,2013-07-25 06:49:00,
2013-07-25 01:59:00,62.6,-39.7,30.01,NNW,342,0.0,4.0,1,0.00,,,0.00,Wunderground v.1.15,2013-07-25 06:59:00,
2013-07-25 02:04:00,62.5,-39.8,30.01,NNW,342,0.0,4.0,1,0.00,,,0.00,Wunderground v.1.15,2013-07-25 07:04:00,
2013-07-25 02:09:00,62.3,-39.9,30.01,NNW,342,0.0,4.0,1,0.00,,,0.00,Wunderground v.1.15,2013-07-25 07:09:00,
2013-07-25 02:14:00,62.0,-40.1,30.01,NNW,342,0.0,4.0,1,0.00,,,0.00,Wunderground v.1.15,2013-07-25 07:14:00,
2013-07-25 02:19:00,61.7,-40.3,30.01,NNW,342,0.0,4.0,1,0.00,,,0.00,Wunderground v.1.15,2013-07-25 07:19:00,
2013-07-25 02:24:00,61.4,-40.5,30.01,NNW,342,0.0,4.0,1,0.00,,,0.00,Wunderground v.1.15,2013-07-25 07:24:00,
2013-07-25 02:35:00,61.3,-40.5,30.01,NNW,342,0.0,4.0,1,0.00,,,0.00,Wunderground v.1.15,2013-07-25 07:35:00,
2013-07-25 02:40:00,61.3,-40.5,30.01,NNW,342,0.0,4.0,1,0.00,,,0.00,Wunderground v.1.15,2013-07-25 07:40:00,
2013-07-25 02:45:00,61.1,-40.6,30.01,NNW,342,0.0,4.0,1,0.00,,,0.00,Wunderground v.1.15,2013-07-25 07:45:00,
2013-07-25 02:49:00,61.0,-40.7,30.01,NNW,342,0.0,4.0,1,0.00,,,0.00,Wunderground v.1.15,2013-07-25 07:49:00,
2013-07-25 02:54:00,61.0,-40.7,30.01,NNW,342,0.0,4.0,1,0.00,,,0.00,Wunderground v.1.15,2013-07-25 07:54:00,
2013-07-25 03:04:00,60.9,-40.8,30.01,NNW,342,0.0,4.0,1,0.00,,,0.00,Wunderground v.1.15,2013-07-25 08:04:00,
2013-07-25 03:09:00,60.8,-40.8,30.01,NNW,342,0.0,4.0,1,0.00,,,0.00,Wunderground v.1.15,2013-07-25 08:09:00,
2013-07-25 03:14:00,60.6,-40.9,30.01,NNW,342,0.0,4.0,1,0.00,,,0.00,Wunderground v.1.15,2013-07-25 08:14:00,
2013-07-25 03:19:00,60.5,-41.0,30.02,NNW,342,0.0,4.0,1,0.00,,,0.00,Wunderground v.1.15,2013-07-25 08:19:00,
2013-07-25 03:24:00,60.2,-41.2,30.01,NNW,342,0.0,4.0,1,0.00,,,0.00,Wunderground v.1.15,2013-07-25 08:24:00,
2013-07-25 03:35:00,60.1,-41.2,30.02,NNW,342,0.0,4.0,1,0.00,,,0.00,Wunderground v.1.15,2013-07-25 08:35:00,
2013-07-25 03:40:00,60.0,-41.3,30.02,NNW,342,0.0,4.0,1,0.00,,,0.00,Wunderground v.1.15,2013-07-25 08:40:00,
2013-07-25 03:49:00,60.2,-41.2,30.02,NNW,342,0.0,4.0,1,0.00,,,0.00,Wunderground v.1.15,2013-07-25 08:49:00,
2013-07-25 03:54:00,59.9,-41.4,30.03,NNW,342,0.0,4.0,1,0.00,,,0.00,Wunderground v.1.15,2013-07-25 08:54:00,
2013-07-25 04:04:00,60.0,-41.3,30.03,NNW,342,0.0,4.0,1,0.00,,,0.00,Wunderground v.1.15,2013-07-25 09:04:00,
2013-07-25 04:09:00,59.9,-41.4,30.03,NNW,342,0.0,4.0,1,0.00,,,0.00,Wunderground v.1.15,2013-07-25 09:09:00,
2013-07-25 04:14:00,59.8,-41.4,30.03,NNW,342,0.0,4.0,1,0.00,,,0.00,Wunderground v.1.15,2013-07-25 09:14:00,
2013-07-25 04:19:00,59.5,-41.6,30.03,NNW,341,0.0,4.0,1,0.00,,,0.00,Wunderground v.1.15,2013-07-25 09:19:00,
2013-07-25 04:24:00,59.2,-41.8,30.03,NNW,342,0.0,4.0,1,0.00,,,0.00,Wunderground v.1.15,2013-07-25 09:24:00,
2013-07-25 04:29:00,59.1,-41.9,30.03,NNW,342,0.0,4.0,1,0.00,,,0.00,Wunderground v.1.15,2013-07-25 09:29:00,
2013-07-25 04:35:00,59.2,-41.8,30.03,NNW,342,0.0,4.0,1,0.00,,,0.00,Wunderground v.1.15,2013-07-25 09:35:00,
2013-07-25 04:45:00,59.0,-41.9,30.03,NNW,342,0.0,4.0,1,0.00,,,0.00,Wunderground v.1.15,2013-07-25 09:45:00,
2013-07-25 04:49:00,58.8,-42.0,30.03,NNW,342,0.0,4.0,1,0.00,,,0.00,Wunderground v.1.15,2013-07-25 09:49:00,
2013-07-25 04:54:00,58.7,-42.1,30.03,NNW,342,0.0,4.0,1,0.00,,,0.00,Wunderground v.1.15,2013-07-25 09:54:00,
2013-07-25 04:59:00,58.8,-42.0,30.03,NNW,342,0.0,4.0,1,0.00,,,0.00,Wunderground v.1.15,2013-07-25 09:59:00,
2013-07-25 05:09:00,58.6,-42.2,30.03,NNW,342,0.0,4.0,1,0.00,,,0.00,Wunderground v.1.15,2013-07-25 10:09:00,
2013-07-25 05:19:00,58.2,-42.4,30.03,NNW,342,0.0,4.0,1,0.00,,,0.00,Wunderground v.1.15,2013-07-25 10:19:00,
2013-07-25 05:24:00,58.2,-42.4,30.03,NNW,342,0.0,4.0,1,0.00,,,0.00,Wunderground v.1.15,2013-07-25 10:24:00,
2013-07-25 05:29:00,58.3,-42.3,30.03,NNW,342,0.0,4.0,1,0.00,,,0.00,Wunderground v.1.15,2013-07-25 10:29:00,
2013-07-25 05:35:00,58.3,-42.3,30.03,NNW,342,0.0,4.0,1,0.00,,,0.00,Wunderground v.1.15,2013-07-25 10:35:00,
2013-07-25 05:40:00,58.2,-42.4,30.03,NNW,342,0.0,4.0,1,0.00,,,0.00,Wunderground v.1.15,2013-07-25 10:40:00,
2013-07-25 05:45:00,58.0,-42.5,30.02,NNW,342,0.0,4.0,1,0.00,,,0.00,Wunderground v.1.15,2013-07-25 10:45:00,
2013-07-25 05:49:00,58.2,-42.4,30.02,NNW,342,0.0,4.0,1,0.00,,,0.00,Wunderground v.1.15,2013-07-25 10:49:00,
2013-07-25 05:54:00,58.0,-42.5,30.02,NNW,342,0.0,4.0,1,0.00,,,0.00,Wunderground v.1.15,2013-07-25 10:54:00,
2013-07-25 05:59:00,57.9,-42.6,30.02,NNW,342,0.0,4.0,1,0.00,,,0.00,Wunderground v.1.15,2013-07-25 10:59:00,
2013-07-25 06:09:00,57.5,-42.8,30.02,NNW,342,0.0,4.0,1,0.00,,,0.00,Wunderground v.1.15,2013-07-25 11:09:00,
2013-07-25 06:14:00,57.6,-42.8,30.02,NNW,342,0.0,4.0,1,0.00,,,0.00,Wunderground v.1.15,2013-07-25 11:14:00,
2013-07-25 06:19:00,57.8,-42.7,30.03,NNW,342,0.0,4.0,1,0.00,,,0.00,Wunderground v.1.15,2013-07-25 11:19:00,
2013-07-25 06:24:00,57.8,-42.7,30.02,NNW,342,0.0,4.0,1,0.00,,,0.00,Wunderground v.1.15,2013-07-25 11:24:00,
2013-07-25 06:29:00,57.8,-42.7,30.02,NNW,342,0.0,4.0,1,0.00,,,0.00,Wunderground v.1.15,2013-07-25 11:29:00,
2013-07-25 06:34:00,57.8,-42.7,30.03,NNW,342,0.0,4.0,1,0.00,,,0.00,Wunderground v.1.15,2013-07-25 11:34:00,
2013-07-25 06:40:00,57.8,-42.7,30.03,NNW,342,0.0,4.0,1,0.00,,,0.00,Wunderground v.1.15,2013-07-25 11:40:00,
2013-07-25 06:45:00,58.2,-42.4,30.03,NNW,342,0.0,4.0,1,0.00,,,0.00,Wunderground v.1.15,2013-07-25 11:45:00,
2013-07-25 06:49:00,58.7,-42.1,30.03,NNW,342,0.0,4.0,1,0.00,,,0.00,Wunderground v.1.15,2013-07-25 11:49:00,
2013-07-25 06:54:00,59.0,-41.9,30.04,NNW,342,0.0,4.0,1,0.00,,,0.00,Wunderground v.1.15,2013-07-25 11:54:00,
2013-07-25 06:59:00,59.1,-41.9,30.04,NNW,342,0.0,4.0,1,0.00,,,0.00,Wunderground v.1.15,2013-07-25 11:59:00,
2013-07-25 07:04:00,59.2,-41.8,30.04,NNW,342,0.0,4.0,1,0.00,,,0.00,Wunderground v.1.15,2013-07-25 12:04:00,
2013-07-25 07:14:00,61.3,-40.5,30.05,NNW,342,0.0,4.0,1,0.00,,,0.00,Wunderground v.1.15,2013-07-25 12:14:00,
2013-07-25 07:19:00,61.4,-40.5,30.05,NNW,342,0.0,4.0,1,0.00,,,0.00,Wunderground v.1.15,2013-07-25 12:19:00,
2013-07-25 07:24:00,62.6,-39.7,30.05,NNW,342,0.0,4.0,1,0.00,,,0.00,Wunderground v.1.15,2013-07-25 12:24:00,
2013-07-25 07:29:00,63.2,-39.4,30.05,NNW,342,0.0,4.0,1,0.00,,,0.00,Wunderground v.1.15,2013-07-25 12:29:00,
2013-07-25 07:34:00,63.4,-39.2,30.06,NNW,342,0.0,4.0,1,0.00,,,0.00,Wunderground v.1.15,2013-07-25 12:34:00,
2013-07-25 07:44:00,63.2,-39.4,30.06,ENE,75,0.0,4.0,1,0.00,,,0.00,Wunderground v.1.15,2013-07-25 12:44:00,
2013-07-25 07:50:00,63.6,-39.1,30.06,ENE,75,0.0,4.0,1,0.00,,,0.00,Wunderground v.1.15,2013-07-25 12:50:00,
2013-07-25 07:55:00,64.2,-38.7,30.06,ENE,72,0.0,4.0,1,0.00,,,0.00,Wunderground v.1.15,2013-07-25 12:55:00,
2013-07-25 08:00:00,65.0,-38.3,30.06,ENE,72,0.0,4.0,1,0.00,,,0.00,Wunderground v.1.15,2013-07-25 13:00:00,
2013-07-25 08:04:00,65.6,-37.9,30.06,ESE,117,0.0,4.0,1,0.00,,,0.00,Wunderground v.1.15,2013-07-25 13:04:00,
2013-07-25 08:14:00,66.7,-37.2,30.05,NNE,14,0.0,4.0,1,0.00,,,0.00,Wunderground v.1.15,2013-07-25 13:14:00,
2013-07-25 08:19:00,67.6,-36.7,30.05,NE,44,0.0,4.0,1,0.00,,,0.00,Wunderground v.1.15,2013-07-25 13:19:00,
2013-07-25 08:24:00,68.9,-35.9,30.05,NE,42,0.0,4.0,1,0.00,,,0.00,Wunderground v.1.15,2013-07-25 13:24:00,
2013-07-25 08:29:00,69.9,-35.3,30.05,ESE,110,0.0,4.0,1,0.00,,,0.00,Wunderground v.1.15,2013-07-25 13:29:00,
2013-07-25 08:34:00,70.5,-34.9,30.05,ENE,71,0.0,4.0,1,0.00,,,0.00,Wunderground v.1.15,2013-07-25 13:34:00,
2013-07-25 08:39:00,70.6,-34.9,30.06,ESE,107,0.0,4.0,1,0.00,,,0.00,Wunderground v.1.15,2013-07-25 13:39:00,
2013-07-25 08:50:00,71.2,-34.5,30.06,ESE,121,0.0,4.0,1,0.00,,,0.00,Wunderground v.1.15,2013-07-25 13:50:00,
2013-07-25 08:55:00,72.0,-34.0,30.07,NNE,30,0.0,4.0,1,0.00,,,0.00,Wunderground v.1.15,2013-07-25 13:55:00,
2013-07-25 09:00:00,72.6,-33.6,30.06,North,9,0.0,4.0,1,0.00,,,0.00,Wunderground v.1.15,2013-07-25 14:00:00,
2013-07-25 09:04:00,73.0,-33.4,30.07,North,357,0.0,4.0,1,0.00,,,0.00,Wunderground v.1.15,2013-07-25 14:04:00,
2013-07-25 09:09:00,73.4,-33.2,30.07,North,360,1.0,4.0,1,0.00,,,0.00,Wunderground v.1.15,2013-07-25 14:09:00,
2013-07-25 09:19:00,74.8,-32.3,30.07,North,9,1.0,4.0,1,0.00,,,0.00,Wunderground v.1.15,2013-07-25 14:19:00,
2013-07-25 09:24:00,74.6,-32.4,30.07,North,356,1.0,4.0,1,0.00,,,0.00,Wunderground v.1.15,2013-07-25 14:24:00,
2013-07-25 09:29:00,74.9,-32.2,30.07,East,79,1.0,1.0,1,0.00,,,0.00,Wunderground v.1.15,2013-07-25 14:29:00,
2013-07-25 09:34:00,75.5,12.7,30.07,East,101,1.0,4.0,9,0.00,,,0.00,Wunderground v.1.15,2013-07-25 14:34:00,
2013-07-25 09:39:00,75.8,24.8,30.07,ESE,117,1.0,4.0,15,0.00,,,0.00,Wunderground v.1.15,2013-07-25 14:39:00,
2013-07-25 09:50:00,77.2,35.4,30.07,NNE,30,0.0,4.0,22,0.00,,,0.00,Wunderground v.1.15,2013-07-25 14:50:00,
2013-07-25 09:55:00,77.9,40.2,30.06,NNW,345,0.0,4.0,26,0.00,,,0.00,Wunderground v.1.15,2013-07-25 14:55:00,
2013-07-25 10:04:00,78.1,43.2,30.07,East,84,2.0,4.0,29,0.00,,,0.00,Wunderground v.1.15,2013-07-25 15:04:00,
2013-07-25 10:09:00,78.9,46.5,30.07,NNE,25,1.0,5.0,32,0.00,,,0.00,Wunderground v.1.15,2013-07-25 15:09:00,
2013-07-25 10:19:00,79.0,48.2,30.07,North,357,2.0,2.0,34,0.00,,,0.00,Wunderground v.1.15,2013-07-25 15:19:00,
2013-07-25 10:24:00,79.0,48.2,30.08,NE,56,2.0,4.0,34,0.00,,,0.00,Wunderground v.1.15,2013-07-25 15:24:00,
2013-07-25 10:29:00,79.7,49.6,30.07,ESE,105,2.0,2.0,35,0.00,,,0.00,Wunderground v.1.15,2013-07-25 15:29:00,
2013-07-25 10:34:00,79.9,52.7,30.08,NE,40,2.0,4.0,39,0.00,,,0.00,Wunderground v.1.15,2013-07-25 15:34:00,
2013-07-25 10:39:00,80.1,52.2,30.08,ENE,61,2.0,5.0,38,0.00,,,0.00,Wunderground v.1.15,2013-07-25 15:39:00,
2013-07-25 10:44:00,80.3,53.1,30.08,NNW,338,2.0,5.0,39,0.00,,,0.00,Wunderground v.1.15,2013-07-25 15:44:00,
2013-07-25 10:50:00,80.8,54.2,30.08,North,356,2.0,2.0,40,0.00,,,0.00,Wunderground v.1.15,2013-07-25 15:50:00,
2013-07-25 10:55:00,80.8,54.9,30.08,ESE,107,1.0,4.0,41,0.00,,,0.00,Wunderground v.1.15,2013-07-25 15:55:00,
2013-07-25 11:00:00,80.8,55.6,30.09,NE,46,1.0,4.0,42,0.00,,,0.00,Wunderground v.1.15,2013-07-25 16:00:00,
2013-07-25 11:04:00,81.2,55.3,30.08,NW,314,1.0,4.0,41,0.00,,,0.00,Wunderground v.1.15,2013-07-25 16:04:00,
2013-07-25 11:09:00,81.1,55.8,30.08,WNW,285,2.0,4.0,42,0.00,,,0.00,Wunderground v.1.15,2013-07-25 16:09:00,
2013-07-25 11:14:00,81.5,56.8,30.08,NW,314,2.0,4.0,43,0.00,,,0.00,Wunderground v.1.15,2013-07-25 16:14:00,
2013-07-25 11:24:00,81.5,57.5,30.08,WNW,295,2.0,4.0,44,0.00,,,0.00,Wunderground v.1.15,2013-07-25 16:24:00,
2013-07-25 11:29:00,81.0,57.7,30.08,NE,34,2.0,2.0,45,0.00,,,0.00,Wunderground v.1.15,2013-07-25 16:29:00,
2013-07-25 11:34:00,81.5,57.5,30.08,SW,234,1.0,4.0,44,0.00,,,0.00,Wunderground v.1.15,2013-07-25 16:34:00,
2013-07-25 11:39:00,81.8,58.4,30.08,WNW,294,1.0,4.0,45,0.00,,,0.00,Wunderground v.1.15,2013-07-25 16:39:00,
2013-07-25 11:44:00,82.1,58.7,30.08,North,360,1.0,4.0,45,0.00,,,0.00,Wunderground v.1.15,2013-07-25 16:44:00,
2013-07-25 11:50:00,82.9,59.4,30.07,SE,127,0.0,4.0,45,0.00,,,0.00,Wunderground v.1.15,2013-07-25 16:50:00,
2013-07-25 11:55:00,83.1,59.6,30.07,NW,305,0.0,4.0,45,0.00,,,0.00,Wunderground v.1.15,2013-07-25 16:55:00,
2013-07-25 12:00:00,83.2,59.6,30.07,West,274,1.0,1.0,45,0.00,,,0.00,Wunderground v.1.15,2013-07-25 17:00:00,
2013-07-25 12:04:00,83.8,59.6,30.07,NNW,348,1.0,4.0,44,0.00,,,0.00,Wunderground v.1.15,2013-07-25 17:04:00,
2013-07-25 12:09:00,83.7,59.5,30.07,NNE,22,0.0,4.0,44,0.00,,,0.00,Wunderground v.1.15,2013-07-25 17:09:00,
2013-07-25 12:14:00,83.5,59.3,30.06,East,94,1.0,4.0,44,0.00,,,0.00,Wunderground v.1.15,2013-07-25 17:14:00,
2013-07-25 12:24:00,84.0,59.7,30.06,SSE,150,1.0,4.0,44,0.00,,,0.00,Wunderground v.1.15,2013-07-25 17:24:00,
2013-07-25 12:29:00,84.2,59.9,30.06,NNW,327,0.0,4.0,44,0.00,,,0.00,Wunderground v.1.15,2013-07-25 17:29:00,
2013-07-25 12:34:00,84.5,60.2,30.06,NW,323,0.0,4.0,44,0.00,,,0.00,Wunderground v.1.15,2013-07-25 17:34:00,
2013-07-25 12:39:00,84.2,59.9,30.06,East,94,1.0,1.0,44,0.00,,,0.00,Wunderground v.1.15,2013-07-25 17:39:00,
2013-07-25 12:44:00,84.2,59.9,30.05,West,273,1.0,4.0,44,0.00,,,0.00,Wunderground v.1.15,2013-07-25 17:44:00,
2013-07-25 12:49:00,84.3,59.4,30.05,SSW,194,1.0,1.0,43,0.00,,,0.00,Wunderground v.1.15,2013-07-25 17:49:00,
2013-07-25 12:59:00,84.5,59.5,30.05,NE,44,1.0,1.0,43,0.00,,,0.00,Wunderground v.1.15,2013-07-25 17:59:00,
2013-07-25 13:05:00,84.3,59.4,30.05,NW,312,2.0,2.0,43,0.00,,,0.00,Wunderground v.1.15,2013-07-25 18:05:00,
2013-07-25 13:10:00,84.7,60.4,30.05,North,357,2.0,5.0,44,0.00,,,0.00,Wunderground v.1.15,2013-07-25 18:10:00,
2013-07-25 13:15:00,84.4,58.8,30.05,NNE,32,2.0,5.0,42,0.00,,,0.00,Wunderground v.1.15,2013-07-25 18:15:00,
2013-07-25 13:19:00,84.4,58.8,30.05,NNW,341,1.0,1.0,42,0.00,,,0.00,Wunderground v.1.15,2013-07-25 18:19:00,
2013-07-25 13:29:00,86.0,59.6,30.04,ESE,110,1.0,1.0,41,0.00,,,0.00,Wunderground v.1.15,2013-07-25 18:29:00,
2013-07-25 13:34:00,85.6,59.2,30.04,NNE,31,1.0,4.0,41,0.00,,,0.00,Wunderground v.1.15,2013-07-25 18:34:00,
2013-07-25 13:39:00,86.1,59.6,30.04,NE,46,1.0,1.0,41,0.00,,,0.00,Wunderground v.1.15,2013-07-25 18:39:00,
2013-07-25 13:44:00,86.5,60.7,30.04,SW,235,1.0,6.0,42,0.00,,,0.00,Wunderground v.1.15,2013-07-25 18:44:00,
2013-07-25 13:54:00,87.0,61.1,30.04,NNW,333,0.0,4.0,42,0.00,,,0.00,Wunderground v.1.15,2013-07-25 18:54:00,
2013-07-25 13:59:00,86.3,59.1,30.03,NNE,27,1.0,1.0,40,0.00,,,0.00,Wunderground v.1.15,2013-07-25 18:59:00,
2013-07-25 14:05:00,86.3,60.5,30.03,SSW,201,1.0,4.0,42,0.00,,,0.00,Wunderground v.1.15,2013-07-25 19:05:00,
2013-07-25 14:10:00,87.1,60.5,30.03,WSW,256,0.0,4.0,41,0.00,,,0.00,Wunderground v.1.15,2013-07-25 19:10:00,
2013-07-25 14:15:00,86.9,59.7,30.03,WNW,293,1.0,4.0,40,0.00,,,0.00,Wunderground v.1.15,2013-07-25 19:15:00,
2013-07-25 14:19:00,87.0,60.5,30.03,ENE,60,1.0,1.0,41,0.00,,,0.00,Wunderground v.1.15,2013-07-25 19:19:00,
2013-07-25 14:29:00,86.5,60.7,30.03,NW,308,1.0,4.0,42,0.00,,,0.00,Wunderground v.1.15,2013-07-25 19:29:00,
2013-07-25 14:34:00,86.4,60.6,30.03,SW,215,2.0,4.0,42,0.00,,,0.00,Wunderground v.1.15,2013-07-25 19:34:00,
2013-07-25 14:39:00,86.2,59.7,30.03,North,8,2.0,4.0,41,0.00,,,0.00,Wunderground v.1.15,2013-07-25 19:39:00,
2013-07-25 14:44:00,85.3,60.3,30.03,SE,134,1.0,4.0,43,0.00,,,0.00,Wunderground v.1.15,2013-07-25 19:44:00,
2013-07-25 14:49:00,86.3,60.5,30.03,NE,44,1.0,1.0,42,0.00,,,0.00,Wunderground v.1.15,2013-07-25 19:49:00,
2013-07-25 14:54:00,86.4,61.3,30.03,SSW,199,1.0,2.0,43,0.00,,,0.00,Wunderground v.1.15,2013-07-25 19:54:00,
2013-07-25 15:04:00,86.5,61.3,30.03,WNW,288,1.0,4.0,43,0.00,,,0.00,Wunderground v.1.15,2013-07-25 20:04:00,
2013-07-25 15:09:00,86.8,61.6,30.03,NE,37,0.0,4.0,43,0.00,,,0.00,Wunderground v.1.15,2013-07-25 20:09:00,
2013-07-25 15:14:00,86.6,60.8,30.03,NW,314,0.0,4.0,42,0.00,,,0.00,Wunderground v.1.15,2013-07-25 20:14:00,
2013-07-25 15:19:00,86.8,61.6,30.03,South,190,0.0,5.0,43,0.00,,,0.00,Wunderground v.1.15,2013-07-25 20:19:00,
2013-07-25 15:24:00,86.7,61.5,30.03,NW,308,1.0,5.0,43,0.00,,,0.00,Wunderground v.1.15,2013-07-25 20:24:00,
2013-07-25 15:30:00,86.4,61.9,30.03,West,269,2.0,2.0,44,0.00,,,0.00,Wunderground v.1.15,2013-07-25 20:30:00,
2013-07-25 15:35:00,86.6,62.1,30.03,West,259,1.0,4.0,44,0.00,,,0.00,Wunderground v.1.15,2013-07-25 20:35:00,
2013-07-25 15:45:00,86.8,61.0,30.03,ESE,111,1.0,4.0,42,0.00,,,0.00,Wunderground v.1.15,2013-07-25 20:45:00,
2013-07-25 15:50:00,87.2,62.0,30.02,North,359,1.0,4.0,43,0.00,,,0.00,Wunderground v.1.15,2013-07-25 20:50:00,
2013-07-25 15:55:00,87.3,61.4,30.03,WNW,291,1.0,4.0,42,0.00,,,0.00,Wunderground v.1.15,2013-07-25 20:55:00,
2013-07-25 16:04:00,86.8,61.0,30.02,West,260,1.0,4.0,42,0.00,,,0.00,Wunderground v.1.15,2013-07-25 21:04:00,
2013-07-25 16:09:00,86.9,61.0,30.02,SW,233,1.0,1.0,42,0.00,,,0.00,Wunderground v.1.15,2013-07-25 21:09:00,
2013-07-25 16:14:00,86.6,61.4,30.02,West,281,0.0,4.0,43,0.00,,,0.00,Wunderground v.1.15,2013-07-25 21:14:00,
2013-07-25 16:19:00,86.1,61.0,30.02,West,264,0.0,4.0,43,0.00,,,0.00,Wunderground v.1.15,2013-07-25 21:19:00,
2013-07-25 16:24:00,86.3,61.8,30.02,North,349,0.0,4.0,44,0.00,,,0.00,Wunderground v.1.15,2013-07-25 21:24:00,
2013-07-25 16:29:00,85.8,62.0,30.02,NW,311,0.0,4.0,45,0.00,,,0.00,Wunderground v.1.15,2013-07-25 21:29:00,
2013-07-25 16:39:00,84.8,61.1,30.02,NW,319,0.0,4.0,45,0.00,,,0.00,Wunderground v.1.15,2013-07-25 21:39:00,
2013-07-25 16:45:00,84.5,60.8,30.02,NNE,25,0.0,4.0,45,0.00,,,0.00,Wunderground v.1.15,2013-07-25 21:45:00,
2013-07-25 16:50:00,84.0,60.4,30.02,NW,314,0.0,4.0,45,0.00,,,0.00,Wunderground v.1.15,2013-07-25 21:50:00,
2013-07-25 16:55:00,84.2,61.2,30.02,NE,41,0.0,4.0,46,0.00,,,0.00,Wunderground v.1.15,2013-07-25 21:55:00,
2013-07-25 16:59:00,83.9,60.9,30.02,NE,46,0.0,4.0,46,0.00,,,0.00,Wunderground v.1.15,2013-07-25 21:59:00,
2013-07-25 17:09:00,83.7,60.7,30.02,NNE,15,0.0,4.0,46,0.00,,,0.00,Wunderground v.1.15,2013-07-25 22:09:00,
2013-07-25 17:19:00,83.2,60.3,30.02,NNE,15,0.0,4.0,46,0.00,,,0.00,Wunderground v.1.15,2013-07-25 22:19:00,
2013-07-25 17:24:00,83.1,60.2,30.02,ENE,70,0.0,4.0,46,0.00,,,0.00,Wunderground v.1.15,2013-07-25 22:24:00,
2013-07-25 17:29:00,83.7,60.1,30.02,ENE,66,0.0,4.0,45,0.00,,,0.00,Wunderground v.1.15,2013-07-25 22:29:00,
2013-07-25 17:39:00,84.0,61.0,30.02,NNE,23,0.0,4.0,46,0.00,,,0.00,Wunderground v.1.15,2013-07-25 22:39:00,
2013-07-25 17:45:00,83.2,60.3,30.02,NNE,20,0.0,4.0,46,0.00,,,0.00,Wunderground v.1.15,2013-07-25 22:45:00,
2013-07-25 17:55:00,82.9,60.0,30.01,ENE,65,0.0,4.0,46,0.00,,,0.00,Wunderground v.1.15,2013-07-25 22:55:00,
2013-07-25 17:59:00,82.7,59.2,30.01,ENE,73,0.0,4.0,45,0.00,,,0.00,Wunderground v.1.15,2013-07-25 22:59:00,
2013-07-25 18:09:00,82.1,58.7,30.01,NNE,27,0.0,4.0,45,0.00,,,0.00,Wunderground v.1.15,2013-07-25 23:09:00,
2013-07-25 18:14:00,81.9,58.5,30.01,NE,54,0.0,4.0,45,0.00,,,0.00,Wunderground v.1.15,2013-07-25 23:14:00,
2013-07-25 18:24:00,81.8,57.8,30.00,NE,42,0.0,4.0,44,0.00,,,0.00,Wunderground v.1.15,2013-07-25 23:24:00,
2013-07-25 18:29:00,81.7,57.7,30.00,NNE,25,0.0,4.0,44,0.00,,,0.00,Wunderground v.1.15,2013-07-25 23:29:00,
2013-07-25 18:34:00,81.8,57.8,30.00,NE,49,0.0,4.0,44,0.00,,,0.00,Wunderground v.1.15,2013-07-25 23:34:00,
2013-07-25 18:45:00,81.7,57.7,30.00,NE,46,0.0,4.0,44,0.00,,,0.00,Wunderground v.1.15,2013-07-25 23:45:00,
2013-07-25 18:50:00,81.4,57.4,30.01,NNE,20,0.0,4.0,44,0.00,,,0.00,Wunderground v.1.15,2013-07-25 23:50:00,
2013-07-25 18:55:00,81.2,56.6,30.00,NNE,22,0.0,4.0,43,0.00,,,0.00,Wunderground v.1.15,2013-07-25 23:55:00,
2013-07-25 18:59:00,80.9,55.7,30.00,NNE,19,0.0,4.0,42,0.00,,,0.00,Wunderground v.1.15,2013-07-25 23:59:00,
2013-07-25 19:04:00,80.7,54.8,30.00,ESE,105,0.0,4.0,41,0.00,,,0.00,Wunderground v.1.15,2013-07-26 00:04:00,
2013-07-25 19:14:00,80.4,53.9,30.00,NNE,32,0.0,4.0,40,0.00,,,0.00,Wunderground v.1.15,2013-07-26 00:14:00,
2013-07-25 19:19:00,80.3,53.1,30.01,East,100,0.0,4.0,39,0.00,,,0.00,Wunderground v.1.15,2013-07-26 00:19:00,
2013-07-25 19:24:00,80.1,54.3,30.01,NE,34,0.0,4.0,41,0.00,,,0.00,Wunderground v.1.15,2013-07-26 00:24:00,
2013-07-25 19:29:00,79.9,54.1,30.01,NE,37,0.0,4.0,41,0.00,,,0.00,Wunderground v.1.15,2013-07-26 00:29:00,
2013-07-25 19:34:00,79.7,53.2,30.01,ENE,72,0.0,4.0,40,0.00,,,0.00,Wunderground v.1.15,2013-07-26 00:34:00,
2013-07-25 19:45:00,79.2,50.7,30.01,ENE,68,0.0,4.0,37,0.00,,,0.00,Wunderground v.1.15,2013-07-26 00:45:00,
2013-07-25 19:50:00,78.8,48.1,30.01,NE,42,0.0,4.0,34,0.00,,,0.00,Wunderground v.1.15,2013-07-26 00:50:00,
2013-07-25 19:55:00,78.5,42.7,30.01,NE,42,0.0,4.0,28,0.00,,,0.00,Wunderground v.1.15,2013-07-26 00:55:00,
2013-07-25 19:59:00,78.1,42.3,30.00,NE,39,0.0,4.0,28,0.00,,,0.00,Wunderground v.1.15,2013-07-26 00:59:00,
2013-07-25 20:04:00,77.9,44.0,30.00,ENE,78,0.0,4.0,30,0.00,,,0.00,Wunderground v.1.15,2013-07-26 01:04:00,
2013-07-25 20:14:00,77.6,46.2,30.00,NNE,31,0.0,4.0,33,0.00,,,0.00,Wunderground v.1.15,2013-07-26 01:14:00,
2013-07-25 20:19:00,77.3,45.9,30.00,NE,43,0.0,4.0,33,0.00,,,0.00,Wunderground v.1.15,2013-07-26 01:19:00,
2013-07-25 20:24:00,77.2,46.7,30.00,NE,56,0.0,4.0,34,0.00,,,0.00,Wunderground v.1.15,2013-07-26 01:24:00,
2013-07-25 20:29:00,77.1,45.8,30.00,ESE,107,0.0,4.0,33,0.00,,,0.00,Wunderground v.1.15,2013-07-26 01:29:00,
2013-07-25 20:34:00,77.0,44.9,30.00,NNE,25,0.0,4.0,32,0.00,,,0.00,Wunderground v.1.15,2013-07-26 01:34:00,
2013-07-25 20:39:00,76.7,43.8,30.00,NE,39,0.0,4.0,31,0.00,,,0.00,Wunderground v.1.15,2013-07-26 01:39:00,
2013-07-25 20:45:00,76.4,41.8,30.00,NE,34,0.0,4.0,29,0.00,,,0.00,Wunderground v.1.15,2013-07-26 01:45:00,
2013-07-25 20:50:00,76.3,41.7,30.00,NE,34,0.0,4.0,29,0.00,,,0.00,Wunderground v.1.15,2013-07-26 01:50:00,
2013-07-25 20:55:00,76.1,38.7,30.00,NE,34,0.0,4.0,26,0.00,,,0.00,Wunderground v.1.15,2013-07-26 01:55:00,
2013-07-25 20:59:00,75.8,36.4,30.00,NE,34,0.0,4.0,24,0.00,,,0.00,Wunderground v.1.15,2013-07-26 01:59:00,
2013-07-25 21:04:00,75.5,34.0,29.99,NNE,21,0.0,4.0,22,0.00,,,0.00,Wunderground v.1.15,2013-07-26 02:04:00,
2013-07-25 21:09:00,75.3,32.6,29.99,North,8,0.0,4.0,21,0.00,,,0.00,Wunderground v.1.15,2013-07-26 02:09:00,
2013-07-25 21:19:00,75.4,35.0,29.99,ESE,110,0.0,4.0,23,0.00,,,0.00,Wunderground v.1.15,2013-07-26 02:19:00,
2013-07-25 21:24:00,75.4,35.0,30.00,ESE,110,0.0,4.0,23,0.00,,,0.00,Wunderground v.1.15,2013-07-26 02:24:00,
2013-07-25 21:29:00,75.4,37.1,30.00,NNE,25,0.0,4.0,25,0.00,,,0.00,Wunderground v.1.15,2013-07-26 02:29:00,
2013-07-25 21:34:00,75.3,37.0,30.00,NNE,25,0.0,4.0,25,0.00,,,0.00,Wunderground v.1.15,2013-07-26 02:34:00,
2013-07-25 21:39:00,75.3,38.0,30.00,NNE,32,0.0,4.0,26,0.00,,,0.00,Wunderground v.1.15,2013-07-26 02:39:00,
2013-07-25 21:45:00,75.2,38.9,30.00,NE,43,0.0,4.0,27,0.00,,,0.00,Wunderground v.1.15,2013-07-26 02:45:00,
2013-07-25 21:50:00,75.2,38.9,30.01,NE,43,0.0,4.0,27,0.00,,,0.00,Wunderground v.1.15,2013-07-26 02:50:00,
2013-07-25 21:55:00,75.1,36.9,30.01,NE,43,0.0,4.0,25,0.00,,,0.00,Wunderground v.1.15,2013-07-26 02:55:00,
2013-07-25 21:59:00,74.8,34.5,30.01,NNW,330,0.0,4.0,23,0.00,,,0.00,Wunderground v.1.15,2013-07-26 02:59:00,
2013-07-25 22:04:00,74.5,34.2,30.01,NNE,13,0.0,4.0,23,0.00,,,0.00,Wunderground v.1.15,2013-07-26 03:04:00,
2013-07-25 22:09:00,74.4,35.2,30.01,NNE,13,0.0,4.0,24,0.00,,,0.00,Wunderground v.1.15,2013-07-26 03:09:00,
2013-07-25 22:19:00,74.6,36.4,30.01,East,80,0.0,4.0,25,0.00,,,0.00,Wunderground v.1.15,2013-07-26 03:19:00,
2013-07-25 22:24:00,74.7,38.5,30.01,NE,34,0.0,4.0,27,0.00,,,0.00,Wunderground v.1.15,2013-07-26 03:24:00,
2013-07-25 22:29:00,74.6,37.4,30.01,NE,39,0.0,4.0,26,0.00,,,0.00,Wunderground v.1.15,2013-07-26 03:29:00,
2013-07-25 22:34:00,74.5,36.4,30.01,SE,129,0.0,4.0,25,0.00,,,0.00,Wunderground v.1.15,2013-07-26 03:34:00,
2013-07-25 22:39:00,74.5,38.3,30.01,ENE,60,0.0,4.0,27,0.00,,,0.00,Wunderground v.1.15,2013-07-26 03:39:00,
2013-07-25 22:44:00,74.4,37.3,30.02,ENE,60,0.0,4.0,26,0.00,,,0.00,Wunderground v.1.15,2013-07-26 03:44:00,
2013-07-25 22:50:00,74.2,35.1,30.02,ENE,60,0.0,4.0,24,0.00,,,0.00,Wunderground v.1.15,2013-07-26 03:50:00,
2013-07-25 22:59:00,73.7,30.1,30.02,ENE,60,0.0,4.0,20,0.00,,,0.00,Wunderground v.1.15,2013-07-26 03:59:00,
2013-07-25 23:04:00,73.3,15.6,30.02,ENE,60,0.0,4.0,11,0.00,,,0.00,Wunderground v.1.15,2013-07-26 04:04:00,
2013-07-25 23:09:00,72.8,-2.2,30.02,ENE,58,0.0,4.0,5,0.00,,,0.00,Wunderground v.1.15,2013-07-26 04:09:00,
2013-07-25 23:14:00,72.4,-33.8,30.02,ENE,58,0.0,4.0,1,0.00,,,0.00,Wunderground v.1.15,2013-07-26 04:14:00,
2013-07-25 23:19:00,72.1,-33.9,30.01,ENE,58,0.0,4.0,1,0.00,,,0.00,Wunderground v.1.15,2013-07-26 04:19:00,
2013-07-25 23:24:00,71.9,-34.1,30.01,ENE,58,0.0,4.0,1,0.00,,,0.00,Wunderground v.1.15,2013-07-26 04:24:00,
2013-07-25 23:29:00,72.0,-34.0,30.01,ESE,120,0.0,4.0,1,0.00,,,0.00,Wunderground v.1.15,2013-07-26 04:29:00,
2013-07-25 23:34:00,72.1,-33.9,30.01,NE,34,0.0,4.0,1,0.00,,,0.00,Wunderground v.1.15,2013-07-26 04:34:00,
2013-07-25 23:39:00,72.0,-21.2,30.02,NE,37,0.0,4.0,2,0.00,,,0.00,Wunderground v.1.15,2013-07-26 04:39:00,
2013-07-25 23:44:00,71.8,-34.1,30.02,NE,37,0.0,4.0,1,0.00,,,0.00,Wunderground v.1.15,2013-07-26 04:44:00,
2013-07-25 23:50:00,71.5,-34.3,30.01,NE,37,0.0,4.0,1,0.00,,,0.00,Wunderground v.1.15,2013-07-26 04:50:00,
2013-07-25 23:55:00,71.2,-34.5,30.01,NE,37,0.0,4.0,1,0.00,,,0.00,Wunderground v.1.15,2013-07-26 04:55:00,
2013-07-25 23:59:00,70.7,-34.8,30.01,NE,36,0.0,4.0,1,0.00,,,0.00,Wunderground v.1.15,2013-07-26 04:59:00,